sensor_id;sensor_type;location;lat;lon;timestamp;P1;durP1;ratioP1;P2;durP2;ratioP2
22480;SDS011;11407;56.964;-2.212;2024-01-30T00:01:16;6.70;;;2.03;;
22480;SDS011;11407;56.964;-2.212;2024-01-30T00:03:41;8.37;;;1.80;;
22480;SDS011;11407;56.964;-2.212;2024-01-30T00:06:07;7.03;;;1.67;;
22480;SDS011;11407;56.964;-2.212;2024-01-30T00:08:32;10.00;;;2.03;;
22480;SDS011;11407;56.964;-2.212;2024-01-30T00:10:58;7.50;;;1.93;;
22480;SDS011;11407;56.964;-2.212;2024-01-30T00:13:23;5.20;;;1.73;;
22480;SDS011;11407;56.964;-2.212;2024-01-30T00:15:48;7.63;;;2.27;;
22480;SDS011;11407;56.964;-2.212;2024-01-30T00:18:14;5.43;;;2.20;;
22480;SDS011;11407;56.964;-2.212;2024-01-30T00:20:39;4.87;;;2.17;;
22480;SDS011;11407;56.964;-2.212;2024-01-30T00:23:04;6.73;;;1.90;;
22480;SDS011;11407;56.964;-2.212;2024-01-30T00:25:29;5.07;;;1.80;;
22480;SDS011;11407;56.964;-2.212;2024-01-30T00:27:55;4.47;;;2.00;;
22480;SDS011;11407;56.964;-2.212;2024-01-30T00:30:20;4.97;;;1.30;;
22480;SDS011;11407;56.964;-2.212;2024-01-30T00:32:45;6.80;;;2.00;;
22480;SDS011;11407;56.964;-2.212;2024-01-30T00:35:11;13.43;;;2.17;;
22480;SDS011;11407;56.964;-2.212;2024-01-30T00:37:36;6.93;;;1.97;;
22480;SDS011;11407;56.964;-2.212;2024-01-30T00:40:01;6.83;;;1.87;;
22480;SDS011;11407;56.964;-2.212;2024-01-30T00:42:27;5.87;;;1.77;;
22480;SDS011;11407;56.964;-2.212;2024-01-30T00:44:52;6.90;;;2.27;;
22480;SDS011;11407;56.964;-2.212;2024-01-30T00:47:17;5.77;;;1.90;;
22480;SDS011;11407;56.964;-2.212;2024-01-30T00:49:42;6.97;;;2.33;;
22480;SDS011;11407;56.964;-2.212;2024-01-30T00:52:08;8.73;;;2.13;;
22480;SDS011;11407;56.964;-2.212;2024-01-30T00:54:33;8.47;;;2.73;;
22480;SDS011;11407;56.964;-2.212;2024-01-30T00:56:58;8.40;;;1.93;;
22480;SDS011;11407;56.964;-2.212;2024-01-30T00:59:24;6.00;;;2.13;;
22480;SDS011;11407;56.964;-2.212;2024-01-30T01:01:49;6.17;;;2.37;;
22480;SDS011;11407;56.964;-2.212;2024-01-30T01:04:15;4.77;;;1.60;;
22480;SDS011;11407;56.964;-2.212;2024-01-30T01:06:40;5.30;;;1.83;;
22480;SDS011;11407;56.964;-2.212;2024-01-30T01:09:10;4.47;;;1.40;;
22480;SDS011;11407;56.964;-2.212;2024-01-30T01:11:35;8.30;;;1.70;;
22480;SDS011;11407;56.964;-2.212;2024-01-30T01:14:00;8.27;;;1.87;;
22480;SDS011;11407;56.964;-2.212;2024-01-30T01:16:26;4.67;;;1.80;;
22480;SDS011;11407;56.964;-2.212;2024-01-30T01:18:51;10.63;;;1.90;;
22480;SDS011;11407;56.964;-2.212;2024-01-30T01:21:16;6.10;;;1.80;;
22480;SDS011;11407;56.964;-2.212;2024-01-30T01:23:41;4.13;;;1.57;;
22480;SDS011;11407;56.964;-2.212;2024-01-30T01:26:07;6.70;;;1.53;;
22480;SDS011;11407;56.964;-2.212;2024-01-30T01:28:32;9.07;;;2.17;;
22480;SDS011;11407;56.964;-2.212;2024-01-30T01:30:58;8.93;;;1.80;;
22480;SDS011;11407;56.964;-2.212;2024-01-30T01:33:30;4.23;;;1.57;;
22480;SDS011;11407;56.964;-2.212;2024-01-30T01:35:55;9.67;;;1.70;;
22480;SDS011;11407;56.964;-2.212;2024-01-30T01:38:20;6.83;;;1.57;;
22480;SDS011;11407;56.964;-2.212;2024-01-30T01:40:46;7.50;;;1.27;;
22480;SDS011;11407;56.964;-2.212;2024-01-30T01:43:11;10.67;;;1.80;;
22480;SDS011;11407;56.964;-2.212;2024-01-30T01:45:36;4.73;;;1.50;;
22480;SDS011;11407;56.964;-2.212;2024-01-30T01:48:01;4.03;;;1.37;;
22480;SDS011;11407;56.964;-2.212;2024-01-30T01:50:27;6.27;;;1.50;;
22480;SDS011;11407;56.964;-2.212;2024-01-30T01:52:52;5.50;;;1.40;;
22480;SDS011;11407;56.964;-2.212;2024-01-30T01:55:18;3.93;;;1.43;;
22480;SDS011;11407;56.964;-2.212;2024-01-30T01:57:46;2.80;;;1.27;;
22480;SDS011;11407;56.964;-2.212;2024-01-30T02:00:11;5.63;;;1.70;;
22480;SDS011;11407;56.964;-2.212;2024-01-30T02:02:37;7.77;;;1.93;;
22480;SDS011;11407;56.964;-2.212;2024-01-30T02:05:04;5.47;;;1.67;;
22480;SDS011;11407;56.964;-2.212;2024-01-30T02:07:29;8.03;;;1.23;;
22480;SDS011;11407;56.964;-2.212;2024-01-30T02:09:55;4.60;;;1.40;;
22480;SDS011;11407;56.964;-2.212;2024-01-30T02:12:20;5.17;;;1.60;;
22480;SDS011;11407;56.964;-2.212;2024-01-30T02:14:46;5.93;;;1.67;;
22480;SDS011;11407;56.964;-2.212;2024-01-30T02:17:11;5.00;;;1.40;;
22480;SDS011;11407;56.964;-2.212;2024-01-30T02:19:37;5.23;;;1.70;;
22480;SDS011;11407;56.964;-2.212;2024-01-30T02:22:02;5.40;;;1.73;;
22480;SDS011;11407;56.964;-2.212;2024-01-30T02:24:28;5.37;;;1.93;;
22480;SDS011;11407;56.964;-2.212;2024-01-30T02:26:53;5.70;;;1.47;;
22480;SDS011;11407;56.964;-2.212;2024-01-30T02:29:18;7.63;;;1.50;;
22480;SDS011;11407;56.964;-2.212;2024-01-30T02:31:43;10.47;;;1.60;;
22480;SDS011;11407;56.964;-2.212;2024-01-30T02:34:10;5.33;;;1.50;;
22480;SDS011;11407;56.964;-2.212;2024-01-30T02:36:36;7.53;;;1.43;;
22480;SDS011;11407;56.964;-2.212;2024-01-30T02:39:01;5.00;;;1.70;;
22480;SDS011;11407;56.964;-2.212;2024-01-30T02:41:26;4.53;;;0.93;;
22480;SDS011;11407;56.964;-2.212;2024-01-30T02:43:51;7.37;;;1.47;;
22480;SDS011;11407;56.964;-2.212;2024-01-30T02:46:17;8.00;;;1.53;;
22480;SDS011;11407;56.964;-2.212;2024-01-30T02:48:42;3.60;;;1.40;;
22480;SDS011;11407;56.964;-2.212;2024-01-30T02:51:07;4.03;;;1.20;;
22480;SDS011;11407;56.964;-2.212;2024-01-30T02:53:33;5.20;;;1.43;;
22480;SDS011;11407;56.964;-2.212;2024-01-30T02:55:58;4.70;;;1.50;;
22480;SDS011;11407;56.964;-2.212;2024-01-30T02:58:23;2.33;;;1.00;;
22480;SDS011;11407;56.964;-2.212;2024-01-30T03:00:48;5.57;;;1.20;;
22480;SDS011;11407;56.964;-2.212;2024-01-30T03:03:13;7.07;;;1.77;;
22480;SDS011;11407;56.964;-2.212;2024-01-30T03:05:39;4.63;;;1.40;;
22480;SDS011;11407;56.964;-2.212;2024-01-30T03:08:04;4.10;;;0.97;;
22480;SDS011;11407;56.964;-2.212;2024-01-30T03:10:29;6.43;;;1.30;;
22480;SDS011;11407;56.964;-2.212;2024-01-30T03:12:55;5.33;;;1.40;;
22480;SDS011;11407;56.964;-2.212;2024-01-30T03:15:20;6.07;;;1.37;;
22480;SDS011;11407;56.964;-2.212;2024-01-30T03:17:45;13.43;;;1.93;;
22480;SDS011;11407;56.964;-2.212;2024-01-30T03:20:10;9.93;;;1.40;;
22480;SDS011;11407;56.964;-2.212;2024-01-30T03:22:36;3.67;;;1.30;;
22480;SDS011;11407;56.964;-2.212;2024-01-30T03:25:01;2.73;;;1.30;;
22480;SDS011;11407;56.964;-2.212;2024-01-30T03:27:26;5.23;;;1.20;;
22480;SDS011;11407;56.964;-2.212;2024-01-30T03:29:51;6.80;;;1.57;;
22480;SDS011;11407;56.964;-2.212;2024-01-30T03:32:17;3.37;;;1.20;;
22480;SDS011;11407;56.964;-2.212;2024-01-30T03:34:42;4.37;;;1.00;;
22480;SDS011;11407;56.964;-2.212;2024-01-30T03:37:07;3.37;;;1.00;;
22480;SDS011;11407;56.964;-2.212;2024-01-30T03:39:33;5.10;;;1.17;;
22480;SDS011;11407;56.964;-2.212;2024-01-30T03:41:58;7.70;;;1.20;;
22480;SDS011;11407;56.964;-2.212;2024-01-30T03:44:23;11.20;;;1.57;;
22480;SDS011;11407;56.964;-2.212;2024-01-30T03:46:48;5.33;;;1.10;;
22480;SDS011;11407;56.964;-2.212;2024-01-30T03:49:14;4.30;;;1.07;;
22480;SDS011;11407;56.964;-2.212;2024-01-30T03:51:39;4.67;;;1.20;;
22480;SDS011;11407;56.964;-2.212;2024-01-30T03:54:04;3.80;;;1.07;;
22480;SDS011;11407;56.964;-2.212;2024-01-30T03:56:29;4.57;;;1.10;;
22480;SDS011;11407;56.964;-2.212;2024-01-30T03:58:55;6.27;;;1.10;;
22480;SDS011;11407;56.964;-2.212;2024-01-30T04:01:21;9.63;;;1.33;;
22480;SDS011;11407;56.964;-2.212;2024-01-30T04:03:46;5.23;;;0.97;;
22480;SDS011;11407;56.964;-2.212;2024-01-30T04:06:11;4.93;;;1.10;;
22480;SDS011;11407;56.964;-2.212;2024-01-30T04:08:37;3.60;;;1.10;;
22480;SDS011;11407;56.964;-2.212;2024-01-30T04:11:05;4.27;;;1.00;;
22480;SDS011;11407;56.964;-2.212;2024-01-30T04:13:31;4.13;;;1.00;;
22480;SDS011;11407;56.964;-2.212;2024-01-30T04:15:56;2.33;;;1.00;;
22480;SDS011;11407;56.964;-2.212;2024-01-30T04:18:21;5.13;;;1.00;;
22480;SDS011;11407;56.964;-2.212;2024-01-30T04:20:46;7.53;;;1.37;;
22480;SDS011;11407;56.964;-2.212;2024-01-30T04:23:12;7.90;;;1.20;;
22480;SDS011;11407;56.964;-2.212;2024-01-30T04:25:37;7.87;;;1.33;;
22480;SDS011;11407;56.964;-2.212;2024-01-30T04:28:02;4.97;;;1.00;;
22480;SDS011;11407;56.964;-2.212;2024-01-30T04:30:27;5.37;;;1.10;;
22480;SDS011;11407;56.964;-2.212;2024-01-30T04:32:53;4.07;;;1.27;;
22480;SDS011;11407;56.964;-2.212;2024-01-30T04:35:18;6.13;;;1.53;;
22480;SDS011;11407;56.964;-2.212;2024-01-30T04:37:45;4.53;;;1.10;;
22480;SDS011;11407;56.964;-2.212;2024-01-30T04:40:10;4.70;;;1.00;;
22480;SDS011;11407;56.964;-2.212;2024-01-30T04:42:36;5.13;;;1.10;;
22480;SDS011;11407;56.964;-2.212;2024-01-30T04:45:01;6.30;;;1.27;;
22480;SDS011;11407;56.964;-2.212;2024-01-30T04:47:27;5.73;;;1.20;;
22480;SDS011;11407;56.964;-2.212;2024-01-30T04:49:52;3.20;;;0.67;;
22480;SDS011;11407;56.964;-2.212;2024-01-30T04:52:18;2.40;;;0.77;;
22480;SDS011;11407;56.964;-2.212;2024-01-30T04:54:43;4.80;;;1.27;;
22480;SDS011;11407;56.964;-2.212;2024-01-30T04:57:08;6.07;;;0.83;;
22480;SDS011;11407;56.964;-2.212;2024-01-30T04:59:36;2.67;;;0.80;;
22480;SDS011;11407;56.964;-2.212;2024-01-30T05:02:02;3.73;;;0.90;;
22480;SDS011;11407;56.964;-2.212;2024-01-30T05:04:27;5.90;;;1.33;;
22480;SDS011;11407;56.964;-2.212;2024-01-30T05:06:52;4.10;;;1.10;;
22480;SDS011;11407;56.964;-2.212;2024-01-30T05:09:18;3.87;;;1.50;;
22480;SDS011;11407;56.964;-2.212;2024-01-30T05:11:44;3.87;;;0.90;;
22480;SDS011;11407;56.964;-2.212;2024-01-30T05:14:09;6.03;;;1.43;;
22480;SDS011;11407;56.964;-2.212;2024-01-30T05:16:36;4.93;;;1.00;;
22480;SDS011;11407;56.964;-2.212;2024-01-30T05:19:01;3.30;;;0.77;;
22480;SDS011;11407;56.964;-2.212;2024-01-30T05:21:26;3.87;;;1.07;;
22480;SDS011;11407;56.964;-2.212;2024-01-30T05:23:51;6.50;;;1.10;;
22480;SDS011;11407;56.964;-2.212;2024-01-30T05:26:17;4.20;;;0.80;;
22480;SDS011;11407;56.964;-2.212;2024-01-30T05:28:42;5.70;;;0.93;;
22480;SDS011;11407;56.964;-2.212;2024-01-30T05:31:09;5.87;;;0.93;;
22480;SDS011;11407;56.964;-2.212;2024-01-30T05:33:34;5.77;;;1.63;;
22480;SDS011;11407;56.964;-2.212;2024-01-30T05:36:00;6.20;;;1.33;;
22480;SDS011;11407;56.964;-2.212;2024-01-30T05:38:25;6.63;;;0.90;;
22480;SDS011;11407;56.964;-2.212;2024-01-30T05:40:50;5.30;;;1.10;;
22480;SDS011;11407;56.964;-2.212;2024-01-30T05:43:16;4.60;;;0.67;;
22480;SDS011;11407;56.964;-2.212;2024-01-30T05:45:41;3.80;;;1.00;;
22480;SDS011;11407;56.964;-2.212;2024-01-30T05:48:06;8.93;;;1.00;;
22480;SDS011;11407;56.964;-2.212;2024-01-30T05:50:31;4.60;;;1.07;;
22480;SDS011;11407;56.964;-2.212;2024-01-30T05:52:57;5.97;;;1.07;;
22480;SDS011;11407;56.964;-2.212;2024-01-30T05:55:22;5.87;;;0.90;;
22480;SDS011;11407;56.964;-2.212;2024-01-30T05:57:47;2.43;;;0.53;;
22480;SDS011;11407;56.964;-2.212;2024-01-30T06:00:14;6.90;;;1.00;;
22480;SDS011;11407;56.964;-2.212;2024-01-30T06:02:39;6.17;;;1.23;;
22480;SDS011;11407;56.964;-2.212;2024-01-30T06:05:04;7.43;;;1.03;;
22480;SDS011;11407;56.964;-2.212;2024-01-30T06:07:30;6.57;;;1.10;;
22480;SDS011;11407;56.964;-2.212;2024-01-30T06:09:55;7.00;;;1.40;;
22480;SDS011;11407;56.964;-2.212;2024-01-30T06:12:20;5.77;;;0.90;;
22480;SDS011;11407;56.964;-2.212;2024-01-30T06:14:45;6.87;;;1.00;;
22480;SDS011;11407;56.964;-2.212;2024-01-30T06:17:11;2.97;;;0.77;;
22480;SDS011;11407;56.964;-2.212;2024-01-30T06:19:37;3.97;;;0.80;;
22480;SDS011;11407;56.964;-2.212;2024-01-30T06:22:03;5.33;;;0.87;;
22480;SDS011;11407;56.964;-2.212;2024-01-30T06:24:28;3.37;;;0.60;;
22480;SDS011;11407;56.964;-2.212;2024-01-30T06:26:53;4.77;;;0.90;;
22480;SDS011;11407;56.964;-2.212;2024-01-30T06:29:19;3.63;;;0.90;;
22480;SDS011;11407;56.964;-2.212;2024-01-30T06:31:44;2.40;;;0.60;;
22480;SDS011;11407;56.964;-2.212;2024-01-30T06:34:09;3.67;;;0.90;;
22480;SDS011;11407;56.964;-2.212;2024-01-30T06:36:35;3.60;;;0.80;;
22480;SDS011;11407;56.964;-2.212;2024-01-30T06:39:01;2.73;;;0.80;;
22480;SDS011;11407;56.964;-2.212;2024-01-30T06:41:26;2.67;;;0.77;;
22480;SDS011;11407;56.964;-2.212;2024-01-30T06:43:51;3.53;;;0.80;;
22480;SDS011;11407;56.964;-2.212;2024-01-30T06:46:17;3.67;;;0.73;;
22480;SDS011;11407;56.964;-2.212;2024-01-30T06:48:42;2.97;;;0.70;;
22480;SDS011;11407;56.964;-2.212;2024-01-30T06:51:09;3.83;;;0.70;;
22480;SDS011;11407;56.964;-2.212;2024-01-30T06:53:35;4.67;;;0.80;;
22480;SDS011;11407;56.964;-2.212;2024-01-30T06:56:00;2.60;;;0.70;;
22480;SDS011;11407;56.964;-2.212;2024-01-30T06:58:25;5.27;;;0.80;;
22480;SDS011;11407;56.964;-2.212;2024-01-30T07:00:51;6.33;;;1.10;;
22480;SDS011;11407;56.964;-2.212;2024-01-30T07:03:16;5.87;;;1.03;;
22480;SDS011;11407;56.964;-2.212;2024-01-30T07:05:41;5.23;;;1.30;;
22480;SDS011;11407;56.964;-2.212;2024-01-30T07:08:07;3.70;;;0.80;;
22480;SDS011;11407;56.964;-2.212;2024-01-30T07:10:32;2.77;;;0.73;;
22480;SDS011;11407;56.964;-2.212;2024-01-30T07:12:58;7.27;;;1.03;;
22480;SDS011;11407;56.964;-2.212;2024-01-30T07:15:23;4.77;;;0.97;;
22480;SDS011;11407;56.964;-2.212;2024-01-30T07:17:48;1.60;;;0.60;;
22480;SDS011;11407;56.964;-2.212;2024-01-30T07:20:13;3.20;;;0.90;;
22480;SDS011;11407;56.964;-2.212;2024-01-30T07:22:39;3.07;;;0.87;;
22480;SDS011;11407;56.964;-2.212;2024-01-30T07:25:05;4.80;;;0.93;;
22480;SDS011;11407;56.964;-2.212;2024-01-30T07:27:30;3.33;;;0.80;;
22480;SDS011;11407;56.964;-2.212;2024-01-30T07:29:56;6.07;;;0.90;;
22480;SDS011;11407;56.964;-2.212;2024-01-30T07:32:21;3.80;;;0.70;;
22480;SDS011;11407;56.964;-2.212;2024-01-30T07:34:46;5.40;;;0.97;;
22480;SDS011;11407;56.964;-2.212;2024-01-30T07:37:11;5.37;;;0.83;;
22480;SDS011;11407;56.964;-2.212;2024-01-30T07:39:40;7.03;;;0.80;;
22480;SDS011;11407;56.964;-2.212;2024-01-30T07:42:05;2.10;;;0.70;;
22480;SDS011;11407;56.964;-2.212;2024-01-30T07:44:31;4.73;;;0.90;;
22480;SDS011;11407;56.964;-2.212;2024-01-30T07:46:56;1.03;;;0.57;;
22480;SDS011;11407;56.964;-2.212;2024-01-30T07:49:22;6.53;;;1.00;;
22480;SDS011;11407;56.964;-2.212;2024-01-30T07:51:47;3.03;;;0.90;;
22480;SDS011;11407;56.964;-2.212;2024-01-30T07:54:12;4.93;;;1.00;;
22480;SDS011;11407;56.964;-2.212;2024-01-30T07:56:38;5.87;;;0.83;;
22480;SDS011;11407;56.964;-2.212;2024-01-30T07:59:03;3.60;;;1.00;;
22480;SDS011;11407;56.964;-2.212;2024-01-30T08:01:29;3.43;;;0.90;;
22480;SDS011;11407;56.964;-2.212;2024-01-30T08:03:54;3.70;;;1.10;;
22480;SDS011;11407;56.964;-2.212;2024-01-30T08:06:19;5.03;;;1.10;;
22480;SDS011;11407;56.964;-2.212;2024-01-30T08:08:45;2.43;;;0.60;;
22480;SDS011;11407;56.964;-2.212;2024-01-30T08:11:10;5.07;;;1.00;;
22480;SDS011;11407;56.964;-2.212;2024-01-30T08:13:35;4.10;;;0.90;;
22480;SDS011;11407;56.964;-2.212;2024-01-30T08:16:00;3.37;;;0.90;;
22480;SDS011;11407;56.964;-2.212;2024-01-30T08:18:26;2.17;;;0.60;;
22480;SDS011;11407;56.964;-2.212;2024-01-30T08:20:51;4.00;;;0.70;;
22480;SDS011;11407;56.964;-2.212;2024-01-30T08:23:16;1.47;;;0.70;;
22480;SDS011;11407;56.964;-2.212;2024-01-30T08:25:42;1.87;;;0.77;;
22480;SDS011;11407;56.964;-2.212;2024-01-30T08:28:07;1.50;;;0.63;;
22480;SDS011;11407;56.964;-2.212;2024-01-30T08:30:33;3.23;;;0.80;;
22480;SDS011;11407;56.964;-2.212;2024-01-30T08:32:58;3.27;;;0.80;;
22480;SDS011;11407;56.964;-2.212;2024-01-30T08:35:23;2.80;;;0.77;;
22480;SDS011;11407;56.964;-2.212;2024-01-30T08:37:48;6.67;;;0.80;;
22480;SDS011;11407;56.964;-2.212;2024-01-30T08:40:14;4.23;;;0.80;;
22480;SDS011;11407;56.964;-2.212;2024-01-30T08:42:39;4.90;;;1.10;;
22480;SDS011;11407;56.964;-2.212;2024-01-30T08:45:04;3.77;;;1.03;;
22480;SDS011;11407;56.964;-2.212;2024-01-30T08:47:30;4.63;;;0.90;;
22480;SDS011;11407;56.964;-2.212;2024-01-30T08:49:55;6.00;;;0.70;;
22480;SDS011;11407;56.964;-2.212;2024-01-30T08:52:21;6.10;;;0.93;;
22480;SDS011;11407;56.964;-2.212;2024-01-30T08:54:46;2.67;;;0.80;;
22480;SDS011;11407;56.964;-2.212;2024-01-30T08:57:11;4.00;;;0.90;;
22480;SDS011;11407;56.964;-2.212;2024-01-30T08:59:36;4.47;;;1.00;;
22480;SDS011;11407;56.964;-2.212;2024-01-30T09:02:02;5.43;;;0.80;;
22480;SDS011;11407;56.964;-2.212;2024-01-30T09:04:28;2.37;;;0.70;;
22480;SDS011;11407;56.964;-2.212;2024-01-30T09:06:53;3.23;;;1.00;;
22480;SDS011;11407;56.964;-2.212;2024-01-30T09:09:18;2.57;;;0.80;;
22480;SDS011;11407;56.964;-2.212;2024-01-30T09:11:44;3.40;;;0.77;;
22480;SDS011;11407;56.964;-2.212;2024-01-30T09:14:09;2.23;;;0.80;;
22480;SDS011;11407;56.964;-2.212;2024-01-30T09:16:34;4.87;;;1.00;;
22480;SDS011;11407;56.964;-2.212;2024-01-30T09:18:59;1.40;;;0.93;;
22480;SDS011;11407;56.964;-2.212;2024-01-30T09:21:25;3.13;;;1.10;;
22480;SDS011;11407;56.964;-2.212;2024-01-30T09:23:52;1.00;;;0.53;;
22480;SDS011;11407;56.964;-2.212;2024-01-30T09:26:17;2.63;;;0.70;;
22480;SDS011;11407;56.964;-2.212;2024-01-30T09:28:42;3.00;;;0.57;;
22480;SDS011;11407;56.964;-2.212;2024-01-30T09:31:11;5.50;;;0.57;;
22480;SDS011;11407;56.964;-2.212;2024-01-30T09:33:36;4.40;;;0.80;;
22480;SDS011;11407;56.964;-2.212;2024-01-30T09:36:02;2.23;;;0.60;;
22480;SDS011;11407;56.964;-2.212;2024-01-30T09:38:27;2.37;;;0.80;;
22480;SDS011;11407;56.964;-2.212;2024-01-30T09:40:53;2.37;;;0.60;;
22480;SDS011;11407;56.964;-2.212;2024-01-30T09:43:20;5.60;;;0.83;;
22480;SDS011;11407;56.964;-2.212;2024-01-30T09:45:47;1.47;;;0.93;;
22480;SDS011;11407;56.964;-2.212;2024-01-30T09:48:13;3.50;;;0.80;;
22480;SDS011;11407;56.964;-2.212;2024-01-30T09:50:38;3.13;;;0.60;;
22480;SDS011;11407;56.964;-2.212;2024-01-30T09:53:06;2.67;;;0.80;;
22480;SDS011;11407;56.964;-2.212;2024-01-30T09:55:36;2.80;;;0.70;;
22480;SDS011;11407;56.964;-2.212;2024-01-30T09:58:02;0.90;;;0.47;;
22480;SDS011;11407;56.964;-2.212;2024-01-30T10:00:27;2.90;;;0.70;;
22480;SDS011;11407;56.964;-2.212;2024-01-30T10:02:53;2.33;;;0.60;;
22480;SDS011;11407;56.964;-2.212;2024-01-30T10:05:19;1.57;;;0.40;;
22480;SDS011;11407;56.964;-2.212;2024-01-30T10:07:54;3.00;;;0.70;;
22480;SDS011;11407;56.964;-2.212;2024-01-30T10:10:21;3.83;;;0.90;;
22480;SDS011;11407;56.964;-2.212;2024-01-30T10:12:46;3.80;;;0.90;;
22480;SDS011;11407;56.964;-2.212;2024-01-30T10:15:12;1.53;;;0.50;;
22480;SDS011;11407;56.964;-2.212;2024-01-30T10:17:38;2.63;;;0.60;;
22480;SDS011;11407;56.964;-2.212;2024-01-30T10:20:04;3.13;;;0.67;;
22480;SDS011;11407;56.964;-2.212;2024-01-30T10:22:29;1.97;;;0.53;;
22480;SDS011;11407;56.964;-2.212;2024-01-30T10:24:55;2.90;;;0.63;;
22480;SDS011;11407;56.964;-2.212;2024-01-30T10:27:25;1.67;;;0.70;;
22480;SDS011;11407;56.964;-2.212;2024-01-30T10:29:50;1.30;;;0.53;;
22480;SDS011;11407;56.964;-2.212;2024-01-30T10:32:16;1.57;;;0.80;;
22480;SDS011;11407;56.964;-2.212;2024-01-30T10:34:42;1.23;;;0.57;;
22480;SDS011;11407;56.964;-2.212;2024-01-30T10:37:08;1.53;;;0.63;;
22480;SDS011;11407;56.964;-2.212;2024-01-30T10:39:53;4.43;;;0.80;;
22480;SDS011;11407;56.964;-2.212;2024-01-30T10:42:18;1.97;;;0.60;;
22480;SDS011;11407;56.964;-2.212;2024-01-30T10:47:12;2.63;;;0.80;;
22480;SDS011;11407;56.964;-2.212;2024-01-30T10:49:40;2.30;;;1.20;;
22480;SDS011;11407;56.964;-2.212;2024-01-30T10:52:07;1.57;;;0.60;;
22480;SDS011;11407;56.964;-2.212;2024-01-30T10:54:33;6.27;;;0.73;;
22480;SDS011;11407;56.964;-2.212;2024-01-30T10:57:00;3.03;;;0.70;;
22480;SDS011;11407;56.964;-2.212;2024-01-30T10:59:27;1.53;;;0.80;;
22480;SDS011;11407;56.964;-2.212;2024-01-30T11:01:52;2.80;;;1.00;;
22480;SDS011;11407;56.964;-2.212;2024-01-30T11:04:18;2.63;;;0.80;;
22480;SDS011;11407;56.964;-2.212;2024-01-30T11:06:43;1.97;;;0.80;;
22480;SDS011;11407;56.964;-2.212;2024-01-30T11:09:10;1.17;;;0.70;;
22480;SDS011;11407;56.964;-2.212;2024-01-30T11:11:49;2.13;;;0.70;;
22480;SDS011;11407;56.964;-2.212;2024-01-30T11:14:15;2.37;;;0.80;;
22480;SDS011;11407;56.964;-2.212;2024-01-30T11:16:40;1.30;;;0.57;;
22480;SDS011;11407;56.964;-2.212;2024-01-30T11:19:05;1.67;;;0.80;;
22480;SDS011;11407;56.964;-2.212;2024-01-30T11:21:40;1.73;;;0.90;;
22480;SDS011;11407;56.964;-2.212;2024-01-30T11:24:05;1.80;;;0.70;;
22480;SDS011;11407;56.964;-2.212;2024-01-30T11:26:31;4.60;;;1.00;;
22480;SDS011;11407;56.964;-2.212;2024-01-30T11:28:56;1.53;;;0.70;;
22480;SDS011;11407;56.964;-2.212;2024-01-30T11:31:22;1.40;;;0.70;;
22480;SDS011;11407;56.964;-2.212;2024-01-30T11:33:47;1.50;;;0.70;;
22480;SDS011;11407;56.964;-2.212;2024-01-30T11:36:17;2.63;;;0.70;;
22480;SDS011;11407;56.964;-2.212;2024-01-30T11:38:43;1.53;;;1.00;;
22480;SDS011;11407;56.964;-2.212;2024-01-30T11:41:10;3.27;;;1.40;;
22480;SDS011;11407;56.964;-2.212;2024-01-30T11:43:35;3.60;;;1.47;;
22480;SDS011;11407;56.964;-2.212;2024-01-30T11:46:00;2.17;;;0.90;;
22480;SDS011;11407;56.964;-2.212;2024-01-30T11:48:26;1.97;;;1.20;;
22480;SDS011;11407;56.964;-2.212;2024-01-30T11:50:51;4.50;;;1.07;;
22480;SDS011;11407;56.964;-2.212;2024-01-30T11:53:17;2.90;;;0.90;;
22480;SDS011;11407;56.964;-2.212;2024-01-30T11:55:48;2.13;;;1.10;;
22480;SDS011;11407;56.964;-2.212;2024-01-30T11:58:14;1.57;;;1.10;;
22480;SDS011;11407;56.964;-2.212;2024-01-30T12:00:39;2.70;;;1.30;;
22480;SDS011;11407;56.964;-2.212;2024-01-30T12:03:04;1.57;;;0.80;;
22480;SDS011;11407;56.964;-2.212;2024-01-30T12:05:31;2.67;;;0.80;;
22480;SDS011;11407;56.964;-2.212;2024-01-30T12:07:57;0.60;;;0.60;;
22480;SDS011;11407;56.964;-2.212;2024-01-30T12:10:25;1.93;;;0.80;;
22480;SDS011;11407;56.964;-2.212;2024-01-30T12:12:51;3.43;;;0.60;;
22480;SDS011;11407;56.964;-2.212;2024-01-30T12:15:18;5.13;;;1.00;;
22480;SDS011;11407;56.964;-2.212;2024-01-30T12:17:43;2.07;;;1.00;;
22480;SDS011;11407;56.964;-2.212;2024-01-30T12:20:13;2.80;;;0.90;;
22480;SDS011;11407;56.964;-2.212;2024-01-30T12:25:08;3.53;;;0.70;;
22480;SDS011;11407;56.964;-2.212;2024-01-30T12:27:33;1.90;;;0.90;;
22480;SDS011;11407;56.964;-2.212;2024-01-30T12:29:59;2.30;;;1.10;;
22480;SDS011;11407;56.964;-2.212;2024-01-30T12:32:24;2.80;;;1.10;;
22480;SDS011;11407;56.964;-2.212;2024-01-30T12:34:49;2.53;;;1.00;;
22480;SDS011;11407;56.964;-2.212;2024-01-30T12:37:15;2.27;;;1.00;;
22480;SDS011;11407;56.964;-2.212;2024-01-30T12:39:44;1.83;;;0.97;;
22480;SDS011;11407;56.964;-2.212;2024-01-30T12:42:10;1.80;;;0.77;;
22480;SDS011;11407;56.964;-2.212;2024-01-30T12:44:35;0.87;;;0.60;;
22480;SDS011;11407;56.964;-2.212;2024-01-30T12:47:02;2.00;;;1.00;;
22480;SDS011;11407;56.964;-2.212;2024-01-30T12:49:28;2.03;;;0.80;;
22480;SDS011;11407;56.964;-2.212;2024-01-30T12:51:53;2.63;;;0.70;;
22480;SDS011;11407;56.964;-2.212;2024-01-30T12:54:18;2.57;;;0.90;;
22480;SDS011;11407;56.964;-2.212;2024-01-30T12:56:43;4.00;;;1.10;;
22480;SDS011;11407;56.964;-2.212;2024-01-30T12:59:08;4.43;;;1.10;;
22480;SDS011;11407;56.964;-2.212;2024-01-30T13:01:34;1.57;;;0.93;;
22480;SDS011;11407;56.964;-2.212;2024-01-30T13:03:59;5.97;;;1.27;;
22480;SDS011;11407;56.964;-2.212;2024-01-30T13:06:24;2.17;;;0.90;;
22480;SDS011;11407;56.964;-2.212;2024-01-30T13:08:50;2.57;;;0.80;;
22480;SDS011;11407;56.964;-2.212;2024-01-30T13:11:15;1.30;;;0.67;;
22480;SDS011;11407;56.964;-2.212;2024-01-30T13:13:40;2.43;;;0.90;;
22480;SDS011;11407;56.964;-2.212;2024-01-30T13:16:05;1.87;;;0.90;;
22480;SDS011;11407;56.964;-2.212;2024-01-30T13:18:31;1.40;;;0.80;;
22480;SDS011;11407;56.964;-2.212;2024-01-30T13:20:56;1.37;;;0.73;;
22480;SDS011;11407;56.964;-2.212;2024-01-30T13:23:21;1.47;;;0.73;;
22480;SDS011;11407;56.964;-2.212;2024-01-30T13:25:47;2.47;;;0.90;;
22480;SDS011;11407;56.964;-2.212;2024-01-30T13:28:12;0.80;;;0.67;;
22480;SDS011;11407;56.964;-2.212;2024-01-30T13:30:37;3.93;;;1.00;;
22480;SDS011;11407;56.964;-2.212;2024-01-30T13:33:03;3.10;;;0.90;;
22480;SDS011;11407;56.964;-2.212;2024-01-30T13:35:28;2.17;;;0.90;;
22480;SDS011;11407;56.964;-2.212;2024-01-30T13:37:53;2.07;;;1.00;;
22480;SDS011;11407;56.964;-2.212;2024-01-30T13:40:18;2.70;;;1.00;;
22480;SDS011;11407;56.964;-2.212;2024-01-30T13:42:44;2.73;;;1.10;;
22480;SDS011;11407;56.964;-2.212;2024-01-30T13:45:09;1.97;;;1.13;;
22480;SDS011;11407;56.964;-2.212;2024-01-30T13:47:37;3.90;;;1.07;;
22480;SDS011;11407;56.964;-2.212;2024-01-30T13:50:03;1.53;;;0.90;;
22480;SDS011;11407;56.964;-2.212;2024-01-30T13:52:28;4.03;;;1.20;;
22480;SDS011;11407;56.964;-2.212;2024-01-30T13:54:54;2.27;;;0.70;;
22480;SDS011;11407;56.964;-2.212;2024-01-30T13:57:19;2.87;;;1.10;;
22480;SDS011;11407;56.964;-2.212;2024-01-30T13:59:44;3.83;;;0.90;;
22480;SDS011;11407;56.964;-2.212;2024-01-30T14:02:09;4.93;;;1.40;;
22480;SDS011;11407;56.964;-2.212;2024-01-30T14:04:35;2.47;;;0.90;;
22480;SDS011;11407;56.964;-2.212;2024-01-30T14:07:02;2.17;;;0.97;;
22480;SDS011;11407;56.964;-2.212;2024-01-30T14:09:27;4.40;;;1.33;;
22480;SDS011;11407;56.964;-2.212;2024-01-30T14:11:52;5.90;;;1.30;;
22480;SDS011;11407;56.964;-2.212;2024-01-30T14:14:18;3.60;;;1.20;;
22480;SDS011;11407;56.964;-2.212;2024-01-30T14:16:43;2.27;;;1.10;;
22480;SDS011;11407;56.964;-2.212;2024-01-30T14:19:08;3.37;;;1.13;;
22480;SDS011;11407;56.964;-2.212;2024-01-30T14:21:33;4.80;;;1.37;;
22480;SDS011;11407;56.964;-2.212;2024-01-30T14:23:59;4.27;;;1.30;;
22480;SDS011;11407;56.964;-2.212;2024-01-30T14:26:24;2.93;;;1.20;;
22480;SDS011;11407;56.964;-2.212;2024-01-30T14:28:49;2.10;;;1.23;;